Time;durP1;ratioP1;P1;durP2;ratioP2;P2;SDS_P1;SDS_P2;PMS_P1;PMS_P2;Temp;Humidity;BMP_temperature;BMP_pressure;BME280_temperature;BME280_humidity;BME280_pressure;Samples;Min_cycle;Max_cycle;Signal;HPM_P1;HPM_P2
2023/06/09 00:04:13;;;;;;;9.93;8.70;;;17.20;97.30;;;;;;20883806;28;20770;-72
2023/06/09 00:14:15;;;;;;;9.73;8.73;;;17.10;97.60;;;;;;20862775;28;20238;-61
2023/06/09 00:24:21;;;;;;;9.13;8.23;;;17.20;97.80;;;;;;20873175;28;20740;-62
2023/06/09 00:34:23;;;;;;;10.33;9.17;;;17.20;97.70;;;;;;20862588;28;20232;-61
2023/06/09 00:44:25;;;;;;;9.57;8.57;;;17.10;97.80;;;;;;20862166;28;20257;-61
2023/06/09 00:54:28;;;;;;;11.87;9.10;;;16.90;97.80;;;;;;20876478;28;20270;-61
2023/06/09 01:04:34;;;;;;;11.40;8.57;;;16.80;97.80;;;;;;20868132;28;20292;-60
2023/06/09 01:14:45;;;;;;;10.10;8.90;;;16.70;98.10;;;;;;20877923;28;20240;-60
2023/06/09 01:25:05;;;;;;;12.80;8.80;;;16.70;98.10;;;;;;20883508;28;20814;-62
2023/06/09 01:35:09;;;;;;;11.07;9.63;;;16.60;98.20;;;;;;20887522;28;20232;-61
2023/06/09 01:45:11;;;;;;;13.57;8.90;;;16.50;98.30;;;;;;20876475;28;20201;-65
2023/06/09 01:55:28;;;;;;;13.53;9.20;;;16.50;98.40;;;;;;20878492;28;20237;-64
2023/06/09 02:05:31;;;;;;;10.57;9.47;;;16.40;98.40;;;;;;20885637;28;20218;-66
2023/06/09 02:15:33;;;;;;;10.13;9.13;;;16.40;98.50;;;;;;20860192;28;20347;-69
2023/06/09 02:25:35;;;;;;;10.27;9.20;;;16.40;98.50;;;;;;20924034;28;20211;-63
2023/06/09 02:35:36;;;;;;;10.77;9.63;;;16.30;98.70;;;;;;20919362;28;20232;-62
2023/06/09 02:45:38;;;;;;;11.13;9.87;;;16.30;98.60;;;;;;20918025;28;20300;-61
2023/06/09 02:55:44;;;;;;;10.47;9.37;;;16.30;98.60;;;;;;20917548;28;20270;-62
2023/06/09 03:05:47;;;;;;;13.73;9.70;;;16.10;98.80;;;;;;20917254;28;20563;-63
2023/06/09 03:15:50;;;;;;;11.27;9.13;;;16.10;99.00;;;;;;20939240;28;20257;-61
2023/06/09 03:25:51;;;;;;;15.50;9.77;;;16.10;99.00;;;;;;20925702;28;20208;-63
2023/06/09 03:35:53;;;;;;;13.93;9.60;;;16.10;99.00;;;;;;20914958;28;20233;-60
2023/06/09 03:45:55;;;;;;;10.57;9.47;;;16.10;99.10;;;;;;20914006;28;20200;-71
2023/06/09 03:55:59;;;;;;;10.47;9.23;;;16.10;99.10;;;;;;20913146;28;20282;-61
2023/06/09 04:06:00;;;;;;;12.10;9.30;;;16.00;99.10;;;;;;20913064;28;20246;-61
2023/06/09 04:16:02;;;;;;;13.37;9.73;;;16.10;99.10;;;;;;20912115;28;20236;-73
2023/06/09 04:26:08;;;;;;;10.73;9.30;;;16.20;99.10;;;;;;20923518;28;20301;-71
2023/06/09 04:36:10;;;;;;;11.07;9.40;;;16.40;99.10;;;;;;20913462;28;20275;-73
2023/06/09 04:46:13;;;;;;;16.10;10.27;;;16.40;99.00;;;;;;20927916;28;20208;-61
2023/06/09 04:56:16;;;;;;;13.70;10.23;;;16.70;98.90;;;;;;20927010;28;20241;-71
2023/06/09 05:06:17;;;;;;;18.17;10.97;;;16.90;98.90;;;;;;20926880;28;20203;-61
2023/06/09 05:16:21;;;;;;;11.60;10.40;;;17.30;98.50;;;;;;20925287;28;20242;-70
2023/06/09 05:26:23;;;;;;;26.20;10.73;;;17.40;98.80;;;;;;20924287;28;20216;-65
2023/06/09 05:36:24;;;;;;;17.80;10.03;;;17.70;98.60;;;;;;20924017;28;20327;-62
2023/06/09 05:46:26;;;;;;;16.13;10.13;;;17.90;98.50;;;;;;20960148;28;20216;-61
2023/06/09 05:56:29;;;;;;;11.47;10.07;;;18.30;98.20;;;;;;20994895;28;20331;-63
2023/06/09 06:06:33;;;;;;;11.03;9.23;;;18.50;97.70;;;;;;21003661;28;20212;-63
2023/06/09 06:16:37;;;;;;;13.97;9.47;;;18.70;97.30;;;;;;20989216;28;20250;-66
2023/06/09 06:26:39;;;;;;;11.97;9.40;;;19.10;96.70;;;;;;20966542;28;20213;-69
2023/06/09 06:36:40;;;;;;;15.13;8.93;;;19.30;96.20;;;;;;20958404;28;20268;-65
2023/06/09 06:46:42;;;;;;;14.93;8.97;;;19.60;95.90;;;;;;20950904;28;20634;-69
2023/06/09 06:56:45;;;;;;;10.33;7.80;;;19.80;95.40;;;;;;20960364;28;20237;-69
2023/06/09 07:06:47;;;;;;;9.97;7.27;;;20.20;95.00;;;;;;20931478;28;20219;-72
2023/06/09 07:16:48;;;;;;;13.93;7.80;;;20.80;93.50;;;;;;20935019;28;20451;-67
2023/06/09 07:26:50;;;;;;;8.80;6.70;;;21.10;92.70;;;;;;20915144;28;20215;-60
2023/06/09 07:36:53;;;;;;;9.00;6.33;;;21.30;92.00;;;;;;20914959;28;20236;-63
2023/06/09 07:46:55;;;;;;;18.53;6.07;;;21.70;90.70;;;;;;20913673;28;20232;-60
2023/06/09 07:56:57;;;;;;;10.07;7.33;;;22.10;90.00;;;;;;20913182;28;20244;-66
2023/06/09 08:06:59;;;;;;;13.67;6.30;;;22.30;89.10;;;;;;20929324;28;20204;-59
2023/06/09 08:17:00;;;;;;;14.77;6.03;;;22.20;88.00;;;;;;20911600;28;20243;-62
2023/06/09 08:27:02;;;;;;;11.83;6.53;;;22.20;87.60;;;;;;20911536;28;20208;-60
2023/06/09 08:37:04;;;;;;;9.17;6.20;;;22.30;87.10;;;;;;20971043;28;20274;-60
2023/06/09 08:47:07;;;;;;;9.67;5.90;;;22.60;86.40;;;;;;20984454;28;20210;-67
2023/06/09 08:57:09;;;;;;;7.53;5.70;;;23.00;85.40;;;;;;20993298;28;20322;-63
2023/06/09 09:07:12;;;;;;;8.83;5.13;;;23.40;84.10;;;;;;20992670;28;20292;-62
2023/06/09 09:17:15;;;;;;;8.13;5.20;;;23.80;82.10;;;;;;20938182;28;20240;-65
2023/06/09 09:27:22;;;;;;;9.13;5.50;;;24.10;79.90;;;;;;20917216;28;20211;-65
2023/06/09 09:37:25;;;;;;;7.33;5.27;;;24.40;78.00;;;;;;20924071;28;20235;-66
2023/06/09 09:47:26;;;;;;;8.57;5.00;;;24.30;76.40;;;;;;21001664;28;20200;-60
2023/06/09 09:57:30;;;;;;;6.83;4.93;;;24.30;74.50;;;;;;21005127;28;20234;-61
2023/06/09 10:07:38;;;;;;;11.43;4.57;;;24.40;72.70;;;;;;21004600;28;20233;-61
2023/06/09 10:17:42;;;;;;;4.80;4.10;;;24.60;70.70;;;;;;20942045;28;20250;-61
2023/06/09 10:27:45;;;;;;;6.40;4.43;;;24.90;68.60;;;;;;20920605;28;20216;-64
2023/06/09 10:37:52;;;;;;;5.83;4.40;;;25.10;66.80;;;;;;20920029;28;20289;-61
2023/06/09 10:47:54;;;;;;;6.70;5.00;;;25.30;65.70;;;;;;20957400;28;20620;-61
2023/06/09 10:57:57;;;;;;;7.13;4.47;;;25.40;64.00;;;;;;20917362;28;20232;-61
2023/06/09 11:08:05;;;;;;;6.23;4.83;;;25.40;63.70;;;;;;20916932;28;20208;-60
2023/06/09 11:18:16;;;;;;;5.67;5.00;;;25.50;61.80;;;;;;20915452;28;20236;-61
2023/06/09 11:28:20;;;;;;;6.47;4.80;;;25.80;61.00;;;;;;20914630;28;20204;-61
2023/06/09 11:38:22;;;;;;;5.13;4.43;;;25.90;60.00;;;;;;20917107;28;20313;-65
2023/06/09 11:48:24;;;;;;;6.57;4.50;;;26.20;59.70;;;;;;20993832;28;20215;-65
2023/06/09 11:58:26;;;;;;;5.00;4.50;;;26.70;57.80;;;;;;20995327;28;20262;-64
2023/06/09 12:08:28;;;;;;;5.00;4.50;;;26.70;56.10;;;;;;20974696;28;20625;-59
2023/06/09 12:18:31;;;;;;;9.80;4.37;;;27.00;54.90;;;;;;20993690;28;20239;-62
2023/06/09 12:28:34;;;;;;;7.83;5.10;;;27.50;53.60;;;;;;20994339;28;20658;-62
2023/06/09 12:38:38;;;;;;;7.57;4.50;;;27.40;53.30;;;;;;20993655;28;20694;-63
2023/06/09 12:49:01;;;;;;;9.02;4.78;;;27.50;53.40;;;;;;20994049;28;20207;-60
2023/06/09 12:59:03;;;;;;;8.00;5.10;;;27.60;52.50;;;;;;20997959;28;20231;-63
2023/06/09 13:09:05;;;;;;;6.60;4.60;;;27.90;51.20;;;;;;21008395;28;20208;-62
2023/06/09 13:19:07;;;;;;;5.25;4.75;;;28.10;49.60;;;;;;21008502;28;20243;-69
2023/06/09 13:29:09;;;;;;;6.40;4.72;;;28.40;48.90;;;;;;21007037;28;20214;-67
2023/06/09 13:39:12;;;;;;;7.68;4.85;;;28.70;48.10;;;;;;20999813;28;20228;-67
2023/06/09 13:49:13;;;;;;;8.40;4.70;;;28.80;47.00;;;;;;20932259;28;20743;-61
2023/06/09 13:59:15;;;;;;;13.60;4.93;;;28.80;46.20;;;;;;20921849;28;20365;-63
2023/06/09 14:09:17;;;;;;;10.23;4.93;;;28.30;46.30;;;;;;20921117;28;20287;-62
2023/06/09 14:19:19;;;;;;;8.80;5.13;;;27.70;46.30;;;;;;20920623;28;20271;-63
2023/06/09 14:29:21;;;;;;;9.83;5.80;;;27.20;46.20;;;;;;20902239;28;20206;-68
2023/06/09 14:39:23;;;;;;;5.73;5.00;;;26.90;45.90;;;;;;20918937;28;20238;-65
2023/06/09 14:49:24;;;;;;;7.97;4.63;;;26.70;46.80;;;;;;20918553;28;20692;-63
2023/06/09 14:59:26;;;;;;;6.43;5.00;;;26.40;48.50;;;;;;20917409;28;20326;-63
2023/06/09 15:09:28;;;;;;;10.73;5.20;;;26.10;48.60;;;;;;20916926;28;20211;-71
2023/06/09 15:19:29;;;;;;;7.90;4.77;;;26.00;49.50;;;;;;20915592;28;20244;-72
2023/06/09 15:29:31;;;;;;;6.77;4.80;;;25.90;50.30;;;;;;20915583;28;20209;-73
2023/06/09 15:39:33;;;;;;;6.30;4.60;;;25.80;51.10;;;;;;20917300;28;20330;-73
2023/06/09 15:49:35;;;;;;;6.60;4.57;;;25.80;51.40;;;;;;20915540;28;20212;-70
2023/06/09 15:59:37;;;;;;;5.70;5.10;;;25.80;51.30;;;;;;20917810;28;20307;-73
2023/06/09 16:09:38;;;;;;;6.33;5.03;;;26.00;51.00;;;;;;20917099;28;20207;-72
2023/06/09 16:19:40;;;;;;;8.70;4.93;;;26.40;50.60;;;;;;20912895;28;20370;-65
2023/06/09 16:29:42;;;;;;;6.13;4.80;;;26.70;49.90;;;;;;20912330;28;20671;-72
2023/06/09 16:39:44;;;;;;;8.13;5.07;;;27.00;49.50;;;;;;20928018;28;20235;-71
2023/06/09 16:49:45;;;;;;;6.63;4.70;;;27.90;49.60;;;;;;20928368;28;20210;-74
2023/06/09 16:59:47;;;;;;;7.93;4.35;;;30.20;47.40;;;;;;20927393;28;20699;-73
2023/06/09 17:09:49;;;;;;;6.78;4.30;;;33.80;42.70;;;;;;20926765;28;20693;-74
2023/06/09 17:19:52;;;;;;;4.40;3.72;;;36.30;38.30;;;;;;20925978;28;20267;-71
2023/06/09 17:29:54;;;;;;;5.80;4.30;;;38.30;34.70;;;;;;20925156;28;20204;-70
2023/06/09 17:39:55;;;;;;;4.68;4.10;;;39.20;32.80;;;;;;20924245;28;20251;-71
2023/06/09 17:49:57;;;;;;;6.57;4.07;;;40.10;31.80;;;;;;20923060;28;20282;-73
2023/06/09 18:00:00;;;;;;;6.97;4.13;;;39.40;32.20;;;;;;20922750;28;20242;-70
2023/06/09 18:10:04;;;;;;;6.03;5.20;;;36.30;35.50;;;;;;20921856;28;20208;-63
2023/06/09 18:20:07;;;;;;;7.00;4.90;;;31.20;41.70;;;;;;20921004;28;20251;-62
2023/06/09 18:30:09;;;;;;;8.43;5.10;;;29.10;44.30;;;;;;20925928;28;20204;-62
2023/06/09 18:40:11;;;;;;;12.13;5.50;;;27.60;47.30;;;;;;20940831;28;20318;-63
2023/06/09 18:50:13;;;;;;;10.47;5.40;;;26.70;49.50;;;;;;20920728;28;20581;-69
2023/06/09 19:00:15;;;;;;;6.53;5.40;;;26.00;51.30;;;;;;20916746;28;20326;-73
2023/06/09 19:10:16;;;;;;;11.13;5.60;;;25.40;52.50;;;;;;20917197;28;20634;-68
2023/06/09 19:20:18;;;;;;;10.90;5.70;;;25.00;53.70;;;;;;20972201;28;20243;-71
2023/06/09 19:30:20;;;;;;;7.97;6.10;;;24.50;55.00;;;;;;20997811;28;20210;-60
2023/06/09 19:40:22;;;;;;;9.87;6.40;;;24.20;56.20;;;;;;20997051;28;20326;-60
2023/06/09 19:50:24;;;;;;;8.10;5.90;;;23.80;57.70;;;;;;20997172;28;20202;-60
2023/06/09 20:00:26;;;;;;;19.60;6.43;;;23.50;59.00;;;;;;20983863;28;20645;-63
2023/06/09 20:10:28;;;;;;;13.17;6.83;;;23.30;60.40;;;;;;20945923;28;20204;-68
2023/06/09 20:20:32;;;;;;;11.30;6.60;;;23.00;62.00;;;;;;20912692;28;20236;-69
2023/06/09 20:30:35;;;;;;;10.30;6.67;;;22.80;63.30;;;;;;20987195;28;20203;-67
2023/06/09 20:40:37;;;;;;;10.67;6.60;;;22.60;64.10;;;;;;20976865;28;20604;-68
2023/06/09 20:50:39;;;;;;;10.73;7.40;;;22.40;64.70;;;;;;20994713;28;20207;-66
2023/06/09 21:00:42;;;;;;;10.40;7.77;;;22.20;66.10;;;;;;20993980;28;20322;-71
2023/06/09 21:10:43;;;;;;;8.43;6.90;;;21.90;67.80;;;;;;20993660;28;20204;-70
2023/06/09 21:20:45;;;;;;;10.53;7.23;;;21.80;68.40;;;;;;20998334;28;20618;-67
2023/06/09 21:30:47;;;;;;;11.10;6.93;;;21.60;68.60;;;;;;21007846;28;20285;-64
2023/06/09 21:40:49;;;;;;;12.87;7.93;;;21.40;69.40;;;;;;21007833;28;20579;-66
2023/06/09 21:50:51;;;;;;;8.63;7.53;;;21.20;70.10;;;;;;21015505;28;20210;-67
2023/06/09 22:00:53;;;;;;;10.43;6.93;;;20.90;71.00;;;;;;21006716;28;20244;-67
2023/06/09 22:10:55;;;;;;;8.63;7.60;;;20.70;71.70;;;;;;21005182;28;20215;-72
2023/06/09 22:20:58;;;;;;;12.33;8.00;;;20.60;72.20;;;;;;21003433;28;20336;-72
2023/06/09 22:31:00;;;;;;;17.00;7.10;;;20.40;72.20;;;;;;20924189;28;20251;-72
2023/06/09 22:41:03;;;;;;;12.10;8.93;;;20.20;71.80;;;;;;20919648;28;20325;-71
2023/06/09 22:51:06;;;;;;;8.53;7.47;;;19.90;72.10;;;;;;20919735;28;20253;-66
2023/06/09 23:01:07;;;;;;;11.03;8.30;;;19.70;73.40;;;;;;20917900;28;20589;-62
2023/06/09 23:11:09;;;;;;;10.07;7.77;;;19.60;74.60;;;;;;20917075;28;20217;-66
2023/06/09 23:21:11;;;;;;;10.00;7.43;;;19.40;74.90;;;;;;20982145;28;20700;-62
2023/06/09 23:31:13;;;;;;;11.17;7.63;;;19.30;75.00;;;;;;20998191;28;20197;-64
2023/06/09 23:41:15;;;;;;;8.53;7.63;;;19.10;75.40;;;;;;20996866;28;20236;-62
2023/06/09 23:51:17;;;;;;;12.83;8.20;;;19.00;75.70;;;;;;20997337;28;20245;-71
